createdAt,value
2018-04-27T00:00:55.431Z,241
2018-04-27T00:02:02.359Z,241
2018-04-27T00:03:09.284Z,241
2018-04-27T00:04:16.480Z,241
2018-04-27T00:05:23.674Z,240
2018-04-27T00:06:30.877Z,241
2018-04-27T00:07:38.074Z,240
2018-04-27T00:08:45.276Z,240
2018-04-27T00:09:52.472Z,241
2018-04-27T00:10:59.687Z,241
2018-04-27T00:12:06.614Z,240
2018-04-27T00:13:13.816Z,240
2018-04-27T00:14:20.741Z,240
2018-04-27T00:15:27.939Z,241
2018-04-27T00:16:35.143Z,240
2018-04-27T00:17:42.064Z,240
2018-04-27T00:18:49.263Z,240
2018-04-27T00:19:56.459Z,240
2018-04-27T00:21:03.656Z,240
2018-04-27T00:22:10.855Z,240
2018-04-27T00:23:18.056Z,240
2018-04-27T00:24:25.279Z,240
2018-04-27T00:25:32.465Z,240
2018-04-27T00:26:39.664Z,240
2018-04-27T00:27:46.860Z,240
2018-04-27T00:28:54.057Z,240
2018-04-27T00:30:01.261Z,240
2018-04-27T00:31:08.466Z,240
2018-04-27T00:32:15.394Z,240
2018-04-27T00:33:22.588Z,240
2018-04-27T00:34:29.969Z,240
2018-04-27T00:35:37.164Z,240
2018-04-27T00:36:44.362Z,241
2018-04-27T00:37:51.558Z,241
2018-04-27T00:38:58.759Z,241
2018-04-27T00:40:05.963Z,241
2018-04-27T00:41:13.157Z,241
2018-04-27T00:42:20.357Z,241
2018-04-27T00:43:27.282Z,241
2018-04-27T00:44:34.481Z,241
2018-04-27T00:45:41.678Z,241
2018-04-27T00:46:48.879Z,241
2018-04-27T00:47:56.076Z,241
2018-04-27T00:49:03.270Z,241
2018-04-27T00:50:10.463Z,242
2018-04-27T00:51:17.661Z,242
2018-04-27T00:52:24.585Z,242
2018-04-27T00:53:31.791Z,242
2018-04-27T00:54:38.994Z,241
2018-04-27T00:55:46.188Z,242
2018-04-27T00:57:08.034Z,242
2018-04-27T00:58:15.237Z,242
2018-04-27T00:59:22.436Z,242
2018-04-27T01:00:29.359Z,242
2018-04-27T01:01:36.557Z,243
2018-04-27T01:02:43.486Z,243
2018-04-27T01:03:50.683Z,242
2018-04-27T01:04:57.877Z,242
2018-04-27T01:06:04.809Z,243
2018-04-27T01:07:12.001Z,243
2018-04-27T01:08:19.205Z,242
2018-04-27T01:09:26.406Z,242
2018-04-27T01:10:33.326Z,242
2018-04-27T01:11:40.526Z,242
2018-04-27T01:12:47.727Z,242
2018-04-27T01:13:54.926Z,243
2018-04-27T01:15:02.127Z,243
2018-04-27T01:16:09.328Z,244
2018-04-27T01:17:16.523Z,244
2018-04-27T01:18:23.722Z,244
2018-04-27T01:19:30.917Z,244
2018-04-27T01:20:38.117Z,245
2018-04-27T01:21:45.314Z,245
2018-04-27T01:22:52.519Z,244
2018-04-27T01:23:59.720Z,244
2018-04-27T01:25:06.914Z,245
2018-04-27T01:26:14.112Z,244
2018-04-27T01:27:21.307Z,245
2018-04-27T01:28:28.501Z,245
2018-04-27T01:29:35.425Z,246
2018-04-27T01:30:42.627Z,246
2018-04-27T01:31:49.825Z,246
2018-04-27T01:32:57.022Z,246
2018-04-27T01:34:04.221Z,246
2018-04-27T01:35:11.178Z,246
2018-04-27T01:36:18.380Z,246
2018-04-27T01:37:25.699Z,246
2018-04-27T01:38:32.628Z,246
2018-04-27T01:39:39.829Z,246
2018-04-27T01:40:47.031Z,246
2018-04-27T01:41:53.953Z,246
2018-04-27T01:43:00.883Z,246
2018-04-27T01:44:08.080Z,246
2018-04-27T01:45:15.003Z,245
2018-04-27T01:46:22.205Z,246
2018-04-27T01:47:29.404Z,246
2018-04-27T01:48:36.602Z,245
2018-04-27T01:49:43.794Z,246
2018-04-27T01:50:50.991Z,246
2018-04-27T01:51:58.186Z,246
2018-04-27T01:53:05.382Z,246
2018-04-27T01:54:12.579Z,247
2018-04-27T01:55:19.494Z,247
2018-04-27T01:56:26.691Z,247
2018-04-27T01:57:33.892Z,248
2018-04-27T01:58:41.086Z,248
2018-04-27T01:59:48.279Z,247
2018-04-27T02:00:55.484Z,248
2018-04-27T02:02:02.420Z,248
2018-04-27T02:03:09.617Z,249
2018-04-27T02:04:16.815Z,249
2018-04-27T02:05:24.013Z,250
2018-04-27T02:06:31.214Z,249
2018-04-27T02:07:38.407Z,250
2018-04-27T02:08:45.604Z,250
2018-04-27T02:09:52.799Z,251
2018-04-27T02:11:00.013Z,251
2018-04-27T02:12:07.209Z,251
2018-04-27T02:13:14.404Z,251
2018-04-27T02:14:21.601Z,252
2018-04-27T02:15:28.797Z,252
2018-04-27T02:16:35.993Z,252
2018-04-27T02:17:43.191Z,252
2018-04-27T02:18:50.397Z,252
2018-04-27T02:19:57.593Z,253
2018-04-27T02:21:04.797Z,253
2018-04-27T02:22:11.995Z,254
2018-04-27T02:23:19.189Z,255
2018-04-27T02:24:26.401Z,255
2018-04-27T02:25:33.602Z,255
2018-04-27T02:26:40.529Z,255
2018-04-27T02:27:47.728Z,255
2018-04-27T02:28:54.926Z,256
2018-04-27T02:30:02.124Z,256
2018-04-27T02:31:09.320Z,256
2018-04-27T02:32:16.517Z,256
2018-04-27T02:33:23.720Z,256
2018-04-27T02:34:30.917Z,256
2018-04-27T02:35:38.115Z,256
2018-04-27T02:36:45.310Z,256
2018-04-27T02:37:52.507Z,256
2018-04-27T02:38:59.700Z,256
2018-04-27T02:40:06.901Z,256
2018-04-27T02:41:14.189Z,256
2018-04-27T02:42:21.388Z,256
2018-04-27T02:43:28.580Z,257
2018-04-27T02:44:35.776Z,257
2018-04-27T02:45:42.997Z,257
2018-04-27T02:46:50.185Z,257
2018-04-27T02:47:57.054Z,257
2018-04-27T02:49:04.248Z,257
2018-04-27T02:50:11.453Z,256
2018-04-27T02:51:18.648Z,257
2018-04-27T02:52:25.855Z,256
2018-04-27T02:53:33.055Z,256
2018-04-27T02:54:40.248Z,256
2018-04-27T02:55:47.446Z,256
2018-04-27T02:56:54.368Z,256
2018-04-27T02:58:01.566Z,256
2018-04-27T02:59:08.762Z,256
2018-04-27T03:00:15.958Z,256
2018-04-27T03:01:23.155Z,257
2018-04-27T03:02:30.363Z,256
2018-04-27T03:03:37.551Z,257
2018-04-27T03:04:44.834Z,256
2018-04-27T03:05:52.032Z,256
2018-04-27T03:06:59.229Z,256
2018-04-27T03:08:06.429Z,256
2018-04-27T03:09:13.631Z,256
2018-04-27T03:10:20.551Z,256
2018-04-27T03:11:27.753Z,256
2018-04-27T03:12:34.946Z,255
2018-04-27T03:13:42.143Z,255
2018-04-27T03:14:49.338Z,255
2018-04-27T03:15:56.541Z,256
2018-04-27T03:17:03.736Z,255
2018-04-27T03:18:10.938Z,255
2018-04-27T03:19:18.160Z,255
2018-04-27T03:20:25.355Z,255
2018-04-27T03:21:32.638Z,255
2018-04-27T03:22:39.822Z,256
2018-04-27T03:23:47.406Z,255
2018-04-27T03:24:54.739Z,255
2018-04-27T03:26:01.652Z,255
2018-04-27T03:27:08.852Z,255
2018-04-27T03:28:16.052Z,255
2018-04-27T03:29:23.248Z,255
2018-04-27T03:30:30.459Z,255
2018-04-27T03:31:37.651Z,255
2018-04-27T03:32:59.500Z,255
2018-04-27T03:34:06.701Z,256
2018-04-27T03:35:13.901Z,255
2018-04-27T03:36:21.095Z,255
2018-04-27T03:37:28.297Z,255
2018-04-27T03:38:35.489Z,255
2018-04-27T03:39:42.689Z,256
2018-04-27T03:40:49.891Z,255
2018-04-27T03:41:57.094Z,254
2018-04-27T03:43:04.292Z,254
2018-04-27T03:44:10.929Z,254
2018-04-27T03:45:18.317Z,255
2018-04-27T03:46:25.513Z,255
2018-04-27T03:47:32.706Z,255
2018-04-27T03:48:39.903Z,255
2018-04-27T03:49:47.104Z,254
2018-04-27T03:50:54.294Z,254
2018-04-27T03:52:01.647Z,254
2018-04-27T03:53:08.859Z,254
2018-04-27T03:54:16.054Z,254
2018-04-27T03:55:23.251Z,254
2018-04-27T03:56:30.170Z,254
2018-04-27T03:57:37.369Z,254
2018-04-27T03:58:44.289Z,254
2018-04-27T03:59:51.206Z,254
2018-04-27T04:00:58.407Z,254
2018-04-27T04:02:05.603Z,254
2018-04-27T04:03:12.798Z,254
2018-04-27T04:04:19.994Z,254
2018-04-27T04:05:27.192Z,253
2018-04-27T04:06:34.122Z,253
2018-04-27T04:07:40.766Z,253
2018-04-27T04:08:47.972Z,253
2018-04-27T04:09:55.176Z,254
2018-04-27T04:11:02.104Z,254
2018-04-27T04:12:09.301Z,253
2018-04-27T04:13:16.500Z,253
2018-04-27T04:14:23.703Z,253
2018-04-27T04:15:30.899Z,253
2018-04-27T04:16:38.096Z,252
2018-04-27T04:17:45.294Z,252
2018-04-27T04:18:52.493Z,252
2018-04-27T04:19:59.692Z,252
2018-04-27T04:21:06.893Z,252
2018-04-27T04:22:14.095Z,252
2018-04-27T04:23:21.289Z,252
2018-04-27T04:24:28.550Z,252
2018-04-27T04:25:35.748Z,252
2018-04-27T04:26:43.009Z,252
2018-04-27T04:27:50.205Z,251
2018-04-27T04:28:57.398Z,251
2018-04-27T04:30:04.591Z,251
2018-04-27T04:31:11.784Z,251
2018-04-27T04:32:19.153Z,250
2018-04-27T04:33:26.430Z,250
2018-04-27T04:34:33.626Z,250
2018-04-27T04:35:40.553Z,250
2018-04-27T04:36:47.762Z,250
2018-04-27T04:37:54.956Z,250
2018-04-27T04:39:02.155Z,250
2018-04-27T04:40:09.355Z,250
2018-04-27T04:41:16.553Z,249
2018-04-27T04:42:23.752Z,249
2018-04-27T04:43:30.951Z,249
2018-04-27T04:44:38.149Z,249
2018-04-27T04:45:45.345Z,249
2018-04-27T04:46:52.554Z,249
2018-04-27T04:47:59.745Z,248
2018-04-27T04:49:06.939Z,249
2018-04-27T04:50:14.136Z,248
2018-04-27T04:51:21.336Z,248
2018-04-27T04:52:28.844Z,248
2018-04-27T04:53:36.155Z,248
2018-04-27T04:54:43.365Z,248
2018-04-27T04:55:50.575Z,248
2018-04-27T04:56:57.776Z,248
2018-04-27T04:58:04.695Z,249
2018-04-27T04:59:11.897Z,248
2018-04-27T05:00:19.093Z,248
2018-04-27T05:01:26.494Z,248
2018-04-27T05:02:33.714Z,248
2018-04-27T05:03:40.639Z,248
2018-04-27T05:04:47.835Z,248
2018-04-27T05:05:55.052Z,248
2018-04-27T05:07:02.271Z,248
2018-04-27T05:08:09.604Z,248
2018-04-27T05:09:31.166Z,249
2018-04-27T05:10:38.514Z,249
2018-04-27T05:11:45.916Z,248
2018-04-27T05:12:53.110Z,248
2018-04-27T05:14:00.313Z,248
2018-04-27T05:15:07.511Z,248
2018-04-27T05:16:14.719Z,249
2018-04-27T05:17:21.642Z,249
2018-04-27T05:18:29.124Z,250
2018-04-27T05:19:36.052Z,250
2018-04-27T05:20:43.251Z,249
2018-04-27T05:21:50.452Z,249
2018-04-27T05:22:57.650Z,248
2018-04-27T05:24:04.848Z,246
2018-04-27T05:25:12.044Z,244
2018-04-27T05:26:19.240Z,242
2018-04-27T05:27:26.164Z,241
2018-04-27T05:28:33.355Z,240
2018-04-27T05:29:40.660Z,239
2018-04-27T05:30:47.898Z,239
2018-04-27T05:31:55.106Z,238
2018-04-27T05:33:02.302Z,237
2018-04-27T05:34:09.505Z,237
2018-04-27T05:35:16.707Z,236
2018-04-27T05:36:23.632Z,236
2018-04-27T05:37:30.554Z,235
2018-04-27T05:38:37.754Z,235
2018-04-27T05:39:44.958Z,234
2018-04-27T05:40:52.162Z,233
2018-04-27T05:41:59.361Z,232
2018-04-27T05:43:06.555Z,231
2018-04-27T05:44:13.474Z,230
2018-04-27T05:45:20.674Z,229
2018-04-27T05:46:27.326Z,229
2018-04-27T05:47:34.580Z,229
2018-04-27T05:48:41.776Z,229
2018-04-27T05:49:48.977Z,229
2018-04-27T05:50:56.179Z,229
2018-04-27T05:52:03.382Z,230
2018-04-27T05:53:10.576Z,230
2018-04-27T05:54:17.771Z,230
2018-04-27T05:55:24.696Z,230
2018-04-27T05:56:31.896Z,230
2018-04-27T05:57:39.101Z,230
2018-04-27T05:58:46.308Z,230
2018-04-27T05:59:53.509Z,231
2018-04-27T06:01:00.707Z,231
2018-04-27T06:02:07.899Z,231
2018-04-27T06:03:14.820Z,232
2018-04-27T06:04:22.023Z,232
2018-04-27T06:05:28.946Z,232
2018-04-27T06:06:35.604Z,232
2018-04-27T06:07:42.800Z,233
2018-04-27T06:08:49.997Z,232
2018-04-27T06:09:57.193Z,233
2018-04-27T06:11:04.399Z,233
2018-04-27T06:12:11.592Z,233
2018-04-27T06:13:18.793Z,234
2018-04-27T06:14:25.995Z,234
2018-04-27T06:15:33.193Z,234
2018-04-27T06:16:40.393Z,234
2018-04-27T06:17:47.600Z,234
2018-04-27T06:18:54.789Z,234
2018-04-27T06:20:01.989Z,233
2018-04-27T06:21:09.181Z,233
2018-04-27T06:22:16.384Z,233
2018-04-27T06:23:23.580Z,233
2018-04-27T06:24:30.780Z,233
2018-04-27T06:25:37.995Z,233
2018-04-27T06:26:45.264Z,232
2018-04-27T06:27:52.238Z,232
2018-04-27T06:28:59.165Z,232
2018-04-27T06:30:06.091Z,233
2018-04-27T06:31:13.016Z,233
2018-04-27T06:32:20.215Z,233
2018-04-27T06:33:27.412Z,233
2018-04-27T06:34:34.615Z,233
2018-04-27T06:35:41.825Z,234
2018-04-27T06:36:49.019Z,234
2018-04-27T06:37:56.221Z,235
2018-04-27T06:39:03.417Z,237
2018-04-27T06:40:10.621Z,237
2018-04-27T06:41:17.545Z,238
2018-04-27T06:42:24.747Z,239
2018-04-27T06:43:31.970Z,239
2018-04-27T06:44:39.171Z,239
2018-04-27T06:45:46.071Z,240
2018-04-27T06:46:52.999Z,240
2018-04-27T06:48:00.200Z,241
2018-04-27T06:49:07.400Z,240
2018-04-27T06:50:14.607Z,240
2018-04-27T06:51:21.813Z,240
2018-04-27T06:52:29.015Z,239
2018-04-27T06:53:36.219Z,239
2018-04-27T06:54:43.151Z,239
2018-04-27T06:55:50.358Z,238
2018-04-27T06:56:57.564Z,238
2018-04-27T06:58:04.766Z,238
2018-04-27T06:59:12.130Z,238
2018-04-27T07:00:19.363Z,238
2018-04-27T07:01:26.565Z,238
2018-04-27T07:02:33.773Z,237
2018-04-27T07:03:40.977Z,237
2018-04-27T07:04:47.913Z,236
2018-04-27T07:05:55.118Z,236
2018-04-27T07:07:02.320Z,237
2018-04-27T07:08:09.247Z,237
2018-04-27T07:09:16.447Z,237
2018-04-27T07:10:23.650Z,238
2018-04-27T07:11:30.931Z,238
2018-04-27T07:12:38.284Z,238
2018-04-27T07:13:45.282Z,240
2018-04-27T07:14:52.216Z,240
2018-04-27T07:15:59.151Z,240
2018-04-27T07:17:06.499Z,239
2018-04-27T07:18:13.424Z,240
2018-04-27T07:19:20.627Z,240
2018-04-27T07:20:27.556Z,240
2018-04-27T07:21:34.506Z,240
2018-04-27T07:22:41.713Z,239
2018-04-27T07:23:48.921Z,239
2018-04-27T07:24:56.137Z,239
2018-04-27T07:26:03.340Z,240
2018-04-27T07:27:10.543Z,239
2018-04-27T07:28:17.744Z,238
2018-04-27T07:29:24.948Z,239
2018-04-27T07:30:32.148Z,240
2018-04-27T07:31:39.078Z,239
2018-04-27T07:32:46.013Z,238
2018-04-27T07:33:53.219Z,238
2018-04-27T07:35:00.427Z,238
2018-04-27T07:36:07.080Z,240
2018-04-27T07:37:14.006Z,240
2018-04-27T07:38:21.211Z,241
2018-04-27T07:39:28.413Z,240
2018-04-27T07:40:35.615Z,240
2018-04-27T07:41:42.817Z,240
2018-04-27T07:42:50.021Z,239
2018-04-27T07:43:56.942Z,239
2018-04-27T07:45:03.877Z,240
2018-04-27T07:46:11.080Z,241
2018-04-27T07:47:18.289Z,241
2018-04-27T07:48:25.722Z,241
2018-04-27T07:49:32.924Z,241
2018-04-27T07:50:40.137Z,241
2018-04-27T07:51:47.337Z,240
2018-04-27T07:52:54.542Z,238
2018-04-27T07:54:01.753Z,238
2018-04-27T07:55:08.962Z,238
2018-04-27T07:56:16.162Z,237
2018-04-27T07:57:23.364Z,237
2018-04-27T07:58:30.572Z,239
2018-04-27T07:59:37.776Z,239
2018-04-27T08:00:44.980Z,240
2018-04-27T08:01:52.183Z,240
2018-04-27T08:02:59.391Z,239
2018-04-27T08:04:06.334Z,239
2018-04-27T08:05:13.538Z,239
2018-04-27T08:06:20.740Z,241
2018-04-27T08:07:27.675Z,242
2018-04-27T08:08:34.875Z,242
2018-04-27T08:09:42.083Z,241
2018-04-27T08:10:49.039Z,240
2018-04-27T08:11:55.967Z,241
2018-04-27T08:13:03.172Z,240
2018-04-27T08:14:10.378Z,240
2018-04-27T08:15:17.315Z,240
2018-04-27T08:16:24.523Z,239
2018-04-27T08:17:31.730Z,239
2018-04-27T08:18:39.075Z,239
2018-04-27T08:19:46.271Z,238
2018-04-27T08:20:53.471Z,240
2018-04-27T08:22:00.681Z,242
2018-04-27T08:23:07.905Z,241
2018-04-27T08:24:15.121Z,240
2018-04-27T08:25:22.324Z,240
2018-04-27T08:26:29.535Z,240
2018-04-27T08:27:36.462Z,240
2018-04-27T08:28:43.668Z,243
2018-04-27T08:29:50.876Z,242
2018-04-27T08:30:58.082Z,240
2018-04-27T08:32:05.295Z,240
2018-04-27T08:33:12.504Z,241
2018-04-27T08:34:19.707Z,242
2018-04-27T08:35:26.911Z,241
2018-04-27T08:36:34.116Z,242
2018-04-27T08:37:41.323Z,241
2018-04-27T08:38:48.537Z,239
2018-04-27T08:39:55.751Z,239
2018-04-27T08:41:02.959Z,240
2018-04-27T08:42:10.169Z,239
2018-04-27T08:43:17.371Z,237
2018-04-27T08:44:24.575Z,240
2018-04-27T08:45:31.788Z,242
2018-04-27T08:46:38.997Z,243
2018-04-27T08:47:46.209Z,242
2018-04-27T08:48:53.411Z,241
2018-04-27T08:50:00.620Z,241
2018-04-27T08:51:07.827Z,240
2018-04-27T08:52:15.031Z,239
2018-04-27T08:53:22.237Z,239
2018-04-27T08:54:29.449Z,238
2018-04-27T08:55:36.353Z,238
2018-04-27T08:56:43.558Z,240
2018-04-27T08:57:50.768Z,238
2018-04-27T08:58:57.970Z,237
2018-04-27T09:00:05.176Z,236
2018-04-27T09:01:12.385Z,239
2018-04-27T09:02:19.601Z,242
2018-04-27T09:03:26.808Z,242
2018-04-27T09:04:34.214Z,243
2018-04-27T09:05:41.481Z,243
2018-04-27T09:06:48.685Z,242
2018-04-27T09:07:55.895Z,242
2018-04-27T09:09:03.103Z,244
2018-04-27T09:10:10.316Z,243
2018-04-27T09:11:17.526Z,242
2018-04-27T09:12:24.728Z,241
2018-04-27T09:13:32.163Z,241
2018-04-27T09:14:39.350Z,240
2018-04-27T09:15:46.282Z,241
2018-04-27T09:16:53.488Z,240
2018-04-27T09:18:00.695Z,241
2018-04-27T09:19:07.905Z,240
2018-04-27T09:20:14.835Z,240
2018-04-27T09:21:22.041Z,240
2018-04-27T09:22:29.252Z,241
2018-04-27T09:23:36.460Z,241
2018-04-27T09:24:43.683Z,241
2018-04-27T09:25:50.892Z,241
2018-04-27T09:26:58.214Z,241
2018-04-27T09:28:05.554Z,241
2018-04-27T09:29:12.767Z,240
2018-04-27T09:30:19.994Z,240
2018-04-27T09:31:26.931Z,240
2018-04-27T09:32:34.140Z,239
2018-04-27T09:33:41.350Z,240
2018-04-27T09:34:48.559Z,239
2018-04-27T09:35:55.769Z,239
2018-04-27T09:37:02.984Z,239
2018-04-27T09:38:10.197Z,239
2018-04-27T09:39:17.405Z,240
2018-04-27T09:40:24.617Z,241
2018-04-27T09:41:31.830Z,243
2018-04-27T09:42:39.036Z,242
2018-04-27T09:43:46.244Z,241
2018-04-27T09:44:53.470Z,240
2018-04-27T09:46:00.668Z,238
2018-04-27T09:47:07.605Z,239
2018-04-27T09:48:14.811Z,242
2018-04-27T09:49:22.023Z,242
2018-04-27T09:50:28.957Z,242
2018-04-27T09:51:36.169Z,243
2018-04-27T09:52:43.106Z,242
2018-04-27T09:53:50.318Z,242
2018-04-27T09:54:57.525Z,242
2018-04-27T09:56:04.738Z,241
2018-04-27T09:57:11.954Z,239
2018-04-27T09:58:19.163Z,237
2018-04-27T09:59:26.481Z,239
2018-04-27T10:00:33.688Z,238
2018-04-27T10:01:40.898Z,235
2018-04-27T10:02:48.110Z,231
2018-04-27T10:03:55.313Z,229
2018-04-27T10:05:02.526Z,231
2018-04-27T10:06:09.453Z,234
2018-04-27T10:07:16.387Z,235
2018-04-27T10:08:23.654Z,233
2018-04-27T10:09:30.634Z,233
2018-04-27T10:10:37.843Z,235
2018-04-27T10:11:45.115Z,231
2018-04-27T10:12:52.325Z,229
2018-04-27T10:13:59.532Z,232
2018-04-27T22:00:07.050Z,286
2018-04-27T22:01:14.256Z,265
2018-04-27T22:02:21.190Z,260
2018-04-27T22:03:28.397Z,258
2018-04-27T22:04:35.663Z,256
2018-04-27T22:05:42.860Z,255
2018-04-27T22:06:50.062Z,254
2018-04-27T22:07:56.996Z,254
2018-04-27T22:09:03.929Z,254
2018-04-27T22:10:11.133Z,253
2018-04-27T22:11:18.338Z,253
2018-04-27T22:12:25.553Z,253
2018-04-27T22:13:32.756Z,253
2018-04-27T22:14:39.967Z,252
2018-04-27T22:15:47.162Z,252
2018-04-27T22:16:54.360Z,251
2018-04-27T22:18:01.563Z,251
2018-04-27T22:19:08.763Z,252
2018-04-27T22:20:15.967Z,252
2018-04-27T22:21:23.170Z,251
2018-04-27T22:22:30.110Z,252
2018-04-27T22:23:37.302Z,252
2018-04-27T22:24:44.520Z,252
2018-04-27T22:25:51.723Z,252
2018-04-27T22:26:58.932Z,251
2018-04-27T22:28:05.851Z,252
2018-04-27T22:29:13.056Z,252
2018-04-27T22:30:20.256Z,251
2018-04-27T22:31:27.460Z,252
2018-04-27T22:32:34.658Z,252
2018-04-27T22:33:41.859Z,252
2018-04-27T22:34:49.060Z,252
2018-04-27T22:35:55.993Z,252
2018-04-27T22:37:03.194Z,252
2018-04-27T22:38:10.393Z,253
2018-04-27T22:39:17.320Z,253
2018-04-27T22:40:24.526Z,252
2018-04-27T22:41:31.751Z,252
2018-04-27T22:42:38.676Z,252
2018-04-27T22:43:45.880Z,253
2018-04-27T22:44:53.092Z,253
2018-04-27T22:46:14.943Z,253
2018-04-27T22:47:22.159Z,253
2018-04-27T22:48:29.351Z,252
2018-04-27T22:49:36.552Z,253
2018-04-27T22:50:58.400Z,253
2018-04-27T22:52:05.602Z,253
2018-04-27T22:53:12.813Z,252
2018-04-27T22:54:20.009Z,252
2018-04-27T22:55:27.211Z,252
2018-04-27T22:56:34.412Z,252
2018-04-27T22:57:41.613Z,252
2018-04-27T22:58:48.814Z,252
2018-04-27T22:59:55.738Z,251
2018-04-27T23:01:02.942Z,252
2018-04-27T23:02:10.143Z,251
2018-04-27T23:03:17.347Z,251
2018-04-27T23:04:24.553Z,251
2018-04-27T23:05:31.756Z,251
2018-04-27T23:06:38.680Z,252
2018-04-27T23:07:45.609Z,251
2018-04-27T23:08:53.147Z,251
2018-04-27T23:10:00.444Z,251
2018-04-27T23:11:07.656Z,251
2018-04-27T23:12:14.849Z,251
2018-04-27T23:13:21.774Z,251
2018-04-27T23:14:28.974Z,252
2018-04-27T23:15:36.189Z,252
2018-04-27T23:16:43.387Z,251
2018-04-27T23:17:50.590Z,251
2018-04-27T23:18:57.791Z,251
2018-04-27T23:20:04.990Z,252
2018-04-27T23:21:12.198Z,251
2018-04-27T23:22:19.387Z,251
2018-04-27T23:23:26.588Z,251
2018-04-27T23:24:33.786Z,251
2018-04-27T23:25:40.755Z,251
2018-04-27T23:26:47.956Z,251
2018-04-27T23:27:54.905Z,251
2018-04-27T23:29:02.106Z,251
2018-04-27T23:30:09.040Z,251
2018-04-27T23:31:16.241Z,250
2018-04-27T23:32:23.445Z,251
2018-04-27T23:33:30.647Z,250
2018-04-27T23:34:37.850Z,250
2018-04-27T23:35:45.050Z,251
2018-04-27T23:36:52.254Z,250
2018-04-27T23:37:59.461Z,250
2018-04-27T23:39:06.658Z,250
2018-04-27T23:40:13.857Z,250
2018-04-27T23:41:21.060Z,251
2018-04-27T23:42:28.259Z,251
2018-04-27T23:43:35.533Z,250
2018-04-27T23:44:42.737Z,250
2018-04-27T23:45:49.934Z,250
2018-04-27T23:46:57.159Z,250
2018-04-27T23:48:04.356Z,249
2018-04-27T23:49:11.559Z,249
2018-04-27T23:50:18.757Z,249
2018-04-27T23:51:25.958Z,250
2018-04-27T23:52:32.898Z,249
2018-04-27T23:53:40.105Z,249
2018-04-27T23:54:47.031Z,249
2018-04-27T23:55:54.253Z,250
2018-04-27T23:57:01.450Z,249
2018-04-27T23:58:08.651Z,250
2018-04-27T23:59:15.857Z,250
